sensor_id;sensor_type;location;lat;lon;timestamp;pressure;altitude;pressure_sealevel;temperature;humidity
65880;BME280;52661;51.364;6.054;2023-03-26T00:00:53;100362.75;;;9.03;100.00
65880;BME280;52661;51.364;6.054;2023-03-26T00:03:20;100364.66;;;8.96;100.00
65880;BME280;52661;51.364;6.054;2023-03-26T00:05:47;100360.78;;;8.89;100.00
65880;BME280;52661;51.364;6.054;2023-03-26T00:08:14;100362.31;;;8.94;100.00
65880;BME280;52661;51.364;6.054;2023-03-26T00:10:40;100363.09;;;8.91;100.00
65880;BME280;52661;51.364;6.054;2023-03-26T00:13:07;100356.53;;;8.92;100.00
65880;BME280;52661;51.364;6.054;2023-03-26T00:15:34;100359.25;;;8.88;100.00
65880;BME280;52661;51.364;6.054;2023-03-26T00:17:59;100366.59;;;8.88;100.00
65880;BME280;52661;51.364;6.054;2023-03-26T00:20:26;100364.66;;;8.88;100.00
65880;BME280;52661;51.364;6.054;2023-03-26T00:22:52;100353.84;;;8.88;100.00
65880;BME280;52661;51.364;6.054;2023-03-26T00:25:19;100354.22;;;8.90;100.00
65880;BME280;52661;51.364;6.054;2023-03-26T00:27:45;100353.06;;;8.92;100.00
65880;BME280;52661;51.364;6.054;2023-03-26T00:30:11;100355.38;;;8.93;100.00
65880;BME280;52661;51.364;6.054;2023-03-26T00:32:37;100347.66;;;8.92;100.00
65880;BME280;52661;51.364;6.054;2023-03-26T00:35:03;100353.84;;;8.88;100.00
65880;BME280;52661;51.364;6.054;2023-03-26T00:37:29;100354.19;;;8.87;100.00
65880;BME280;52661;51.364;6.054;2023-03-26T00:39:55;100353.06;;;8.88;100.00
65880;BME280;52661;51.364;6.054;2023-03-26T00:42:28;100346.50;;;8.89;100.00
65880;BME280;52661;51.364;6.054;2023-03-26T00:44:54;100343.78;;;8.93;100.00
65880;BME280;52661;51.364;6.054;2023-03-26T00:47:23;100345.31;;;8.83;100.00
65880;BME280;52661;51.364;6.054;2023-03-26T00:49:49;100332.19;;;8.85;100.00
65880;BME280;52661;51.364;6.054;2023-03-26T00:52:15;100339.88;;;8.79;100.00
65880;BME280;52661;51.364;6.054;2023-03-26T00:54:47;100332.94;;;8.71;100.00
65880;BME280;52661;51.364;6.054;2023-03-26T00:57:13;100338.34;;;8.75;100.00
65880;BME280;52661;51.364;6.054;2023-03-26T00:59:39;100337.56;;;8.64;100.00
65880;BME280;52661;51.364;6.054;2023-03-26T01:02:06;100330.22;;;8.61;100.00
65880;BME280;52661;51.364;6.054;2023-03-26T01:04:35;100329.44;;;8.60;100.00
65880;BME280;52661;51.364;6.054;2023-03-26T01:07:10;100322.47;;;8.49;100.00
65880;BME280;52661;51.364;6.054;2023-03-26T01:09:40;100318.19;;;8.44;100.00
65880;BME280;52661;51.364;6.054;2023-03-26T01:12:13;100308.91;;;8.38;100.00
65880;BME280;52661;51.364;6.054;2023-03-26T01:14:43;100319.34;;;8.47;100.00
65880;BME280;52661;51.364;6.054;2023-03-26T01:17:08;100312.41;;;8.42;100.00
65880;BME280;52661;51.364;6.054;2023-03-26T01:22:33;100297.72;;;8.47;100.00
65880;BME280;52661;51.364;6.054;2023-03-26T01:25:01;100300.03;;;8.45;100.00
65880;BME280;52661;51.364;6.054;2023-03-26T01:30:34;100294.63;;;8.37;100.00
65880;BME280;52661;51.364;6.054;2023-03-26T01:35:57;100277.94;;;8.25;100.00
65880;BME280;52661;51.364;6.054;2023-03-26T01:38:46;100281.44;;;8.29;100.00
65880;BME280;52661;51.364;6.054;2023-03-26T01:41:25;100277.94;;;8.25;100.00
65880;BME280;52661;51.364;6.054;2023-03-26T01:44:48;100277.16;;;8.10;100.00
65880;BME280;52661;51.364;6.054;2023-03-26T01:47:17;100271.34;;;8.08;100.00
65880;BME280;52661;51.364;6.054;2023-03-26T01:49:42;100260.94;;;8.14;100.00
65880;BME280;52661;51.364;6.054;2023-03-26T01:52:15;100258.19;;;8.03;100.00
65880;BME280;52661;51.364;6.054;2023-03-26T01:54:41;100261.28;;;8.02;100.00
65880;BME280;52661;51.364;6.054;2023-03-26T01:57:29;100268.97;;;7.92;100.00
65880;BME280;52661;51.364;6.054;2023-03-26T02:08:08;100256.22;;;7.93;100.00
65880;BME280;52661;51.364;6.054;2023-03-26T02:10:40;100256.19;;;7.86;100.00
65880;BME280;52661;51.364;6.054;2023-03-26T02:13:06;100246.59;;;7.88;100.00
65880;BME280;52661;51.364;6.054;2023-03-26T02:15:32;100242.69;;;7.86;100.00
65880;BME280;52661;51.364;6.054;2023-03-26T02:17:57;100242.69;;;7.82;100.00
65880;BME280;52661;51.364;6.054;2023-03-26T02:20:24;100231.88;;;7.82;100.00
65880;BME280;52661;51.364;6.054;2023-03-26T02:22:54;100230.75;;;7.90;100.00
65880;BME280;52661;51.364;6.054;2023-03-26T02:25:20;100222.66;;;7.94;100.00
65880;BME280;52661;51.364;6.054;2023-03-26T02:27:46;100218.03;;;7.98;100.00
65880;BME280;52661;51.364;6.054;2023-03-26T02:30:20;100208.38;;;7.97;100.00
65880;BME280;52661;51.364;6.054;2023-03-26T02:32:50;100201.41;;;8.00;100.00
65880;BME280;52661;51.364;6.054;2023-03-26T02:35:16;100198.34;;;7.98;100.00
65880;BME280;52661;51.364;6.054;2023-03-26T02:37:41;100194.84;;;7.97;100.00
65880;BME280;52661;51.364;6.054;2023-03-26T02:40:11;100190.22;;;7.94;100.00
65880;BME280;52661;51.364;6.054;2023-03-26T02:42:37;100184.03;;;7.93;100.00
65880;BME280;52661;51.364;6.054;2023-03-26T02:45:04;100183.28;;;7.97;100.00
65880;BME280;52661;51.364;6.054;2023-03-26T02:47:30;100185.19;;;7.96;100.00
65880;BME280;52661;51.364;6.054;2023-03-26T02:49:55;100180.97;;;7.91;100.00
65880;BME280;52661;51.364;6.054;2023-03-26T02:52:20;100185.19;;;7.85;100.00
65880;BME280;52661;51.364;6.054;2023-03-26T02:54:46;100180.94;;;7.77;100.00
65880;BME280;52661;51.364;6.054;2023-03-26T02:57:11;100178.25;;;7.81;100.00
65880;BME280;52661;51.364;6.054;2023-03-26T02:59:36;100170.13;;;7.81;100.00
65880;BME280;52661;51.364;6.054;2023-03-26T03:02:02;100169.34;;;7.80;100.00
65880;BME280;52661;51.364;6.054;2023-03-26T03:04:28;100165.13;;;7.83;100.00
65880;BME280;52661;51.364;6.054;2023-03-26T03:06:53;100158.56;;;7.87;100.00
65880;BME280;52661;51.364;6.054;2023-03-26T03:09:21;100162.78;;;7.85;100.00
65880;BME280;52661;51.364;6.054;2023-03-26T03:11:47;100152.75;;;7.89;100.00
65880;BME280;52661;51.364;6.054;2023-03-26T03:14:12;100140.03;;;7.93;100.00
65880;BME280;52661;51.364;6.054;2023-03-26T03:16:38;100139.25;;;7.96;100.00
65880;BME280;52661;51.364;6.054;2023-03-26T03:19:03;100144.28;;;7.98;100.00
65880;BME280;52661;51.364;6.054;2023-03-26T03:21:30;100144.28;;;7.94;100.00
65880;BME280;52661;51.364;6.054;2023-03-26T03:23:55;100132.72;;;8.01;100.00
65880;BME280;52661;51.364;6.054;2023-03-26T03:26:23;100135.81;;;7.99;100.00
65880;BME280;52661;51.364;6.054;2023-03-26T03:28:52;100128.09;;;8.05;100.00
65880;BME280;52661;51.364;6.054;2023-03-26T03:31:18;100123.06;;;8.03;100.00
65880;BME280;52661;51.364;6.054;2023-03-26T03:33:43;100126.94;;;8.02;100.00
65880;BME280;52661;51.364;6.054;2023-03-26T03:36:11;100118.81;;;8.09;100.00
65880;BME280;52661;51.364;6.054;2023-03-26T03:38:38;100113.03;;;8.07;100.00
65880;BME280;52661;51.364;6.054;2023-03-26T03:41:04;100114.94;;;8.03;100.00
65880;BME280;52661;51.364;6.054;2023-03-26T03:43:30;100110.72;;;8.06;100.00
65880;BME280;52661;51.364;6.054;2023-03-26T03:45:57;100115.34;;;8.05;100.00
65880;BME280;52661;51.364;6.054;2023-03-26T03:48:22;100106.09;;;8.03;100.00
65880;BME280;52661;51.364;6.054;2023-03-26T03:50:48;100097.59;;;8.08;100.00
65880;BME280;52661;51.364;6.054;2023-03-26T03:53:13;100096.81;;;8.04;100.00
65880;BME280;52661;51.364;6.054;2023-03-26T03:55:40;100097.22;;;8.06;100.00
65880;BME280;52661;51.364;6.054;2023-03-26T03:58:06;100094.88;;;8.04;100.00
65880;BME280;52661;51.364;6.054;2023-03-26T04:00:33;100102.59;;;7.99;100.00
65880;BME280;52661;51.364;6.054;2023-03-26T04:03:02;100102.97;;;7.97;100.00
65880;BME280;52661;51.364;6.054;2023-03-26T04:05:30;100094.09;;;8.00;100.00
65880;BME280;52661;51.364;6.054;2023-03-26T04:07:55;100086.00;;;8.00;100.00
65880;BME280;52661;51.364;6.054;2023-03-26T04:10:20;100082.13;;;7.98;100.00
65880;BME280;52661;51.364;6.054;2023-03-26T04:12:46;100069.41;;;8.05;100.00
65880;BME280;52661;51.364;6.054;2023-03-26T04:15:11;100074.03;;;8.05;100.00
65880;BME280;52661;51.364;6.054;2023-03-26T04:17:36;100063.22;;;8.08;100.00
65880;BME280;52661;51.364;6.054;2023-03-26T04:20:07;100050.47;;;8.12;100.00
65880;BME280;52661;51.364;6.054;2023-03-26T04:22:33;100056.66;;;8.09;100.00
65880;BME280;52661;51.364;6.054;2023-03-26T04:24:58;100044.31;;;8.12;100.00
65880;BME280;52661;51.364;6.054;2023-03-26T04:27:27;100049.31;;;8.17;100.00
65880;BME280;52661;51.364;6.054;2023-03-26T04:29:55;100033.09;;;8.17;100.00
65880;BME280;52661;51.364;6.054;2023-03-26T04:32:24;100033.13;;;8.13;100.00
65880;BME280;52661;51.364;6.054;2023-03-26T04:34:58;100033.88;;;8.17;100.00
65880;BME280;52661;51.364;6.054;2023-03-26T04:37:27;100032.34;;;8.16;100.00
65880;BME280;52661;51.364;6.054;2023-03-26T04:39:59;100019.59;;;8.17;100.00
65880;BME280;52661;51.364;6.054;2023-03-26T04:42:25;100019.97;;;8.15;100.00
65880;BME280;52661;51.364;6.054;2023-03-26T04:44:50;100018.81;;;8.16;100.00
65880;BME280;52661;51.364;6.054;2023-03-26T04:47:19;100023.81;;;8.18;100.00
65880;BME280;52661;51.364;6.054;2023-03-26T04:49:46;100016.13;;;8.16;100.00
65880;BME280;52661;51.364;6.054;2023-03-26T04:52:14;100007.59;;;8.14;100.00
65880;BME280;52661;51.364;6.054;2023-03-26T04:54:42;100004.91;;;8.11;100.00
65880;BME280;52661;51.364;6.054;2023-03-26T04:57:14;100005.31;;;8.09;100.00
65880;BME280;52661;51.364;6.054;2023-03-26T04:59:43;99999.50;;;8.07;100.00
65880;BME280;52661;51.364;6.054;2023-03-26T05:02:10;100001.47;;;7.89;100.00
65880;BME280;52661;51.364;6.054;2023-03-26T05:04:37;99999.16;;;7.87;100.00
65880;BME280;52661;51.364;6.054;2023-03-26T05:07:09;99989.50;;;7.93;100.00
65880;BME280;52661;51.364;6.054;2023-03-26T05:09:35;99992.19;;;7.90;100.00
65880;BME280;52661;51.364;6.054;2023-03-26T05:12:01;99995.28;;;7.99;100.00
65880;BME280;52661;51.364;6.054;2023-03-26T05:14:26;99988.34;;;7.98;100.00
65880;BME280;52661;51.364;6.054;2023-03-26T05:16:51;99988.72;;;7.89;100.00
65880;BME280;52661;51.364;6.054;2023-03-26T05:19:17;99974.84;;;7.77;100.00
65880;BME280;52661;51.364;6.054;2023-03-26T05:21:43;99976.78;;;7.76;100.00
65880;BME280;52661;51.364;6.054;2023-03-26T05:24:08;99965.19;;;7.69;100.00
65880;BME280;52661;51.364;6.054;2023-03-26T05:26:34;99963.66;;;7.68;100.00
65880;BME280;52661;51.364;6.054;2023-03-26T05:29:01;99954.78;;;7.67;100.00
65880;BME280;52661;51.364;6.054;2023-03-26T05:31:27;99951.31;;;7.67;100.00
65880;BME280;52661;51.364;6.054;2023-03-26T05:33:55;99948.22;;;7.68;100.00
65880;BME280;52661;51.364;6.054;2023-03-26T05:36:21;99936.28;;;7.66;100.00
65880;BME280;52661;51.364;6.054;2023-03-26T05:38:47;99934.34;;;7.63;100.00
65880;BME280;52661;51.364;6.054;2023-03-26T05:41:14;99933.94;;;7.68;100.00
65880;BME280;52661;51.364;6.054;2023-03-26T05:43:40;99930.88;;;7.73;100.00
65880;BME280;52661;51.364;6.054;2023-03-26T05:46:06;99922.75;;;7.69;100.00
65880;BME280;52661;51.364;6.054;2023-03-26T05:48:31;99918.50;;;7.72;100.00
65880;BME280;52661;51.364;6.054;2023-03-26T05:50:57;99915.44;;;7.73;100.00
65880;BME280;52661;51.364;6.054;2023-03-26T05:53:24;99910.78;;;7.77;100.00
65880;BME280;52661;51.364;6.054;2023-03-26T05:55:50;99908.84;;;7.78;100.00
65880;BME280;52661;51.364;6.054;2023-03-26T05:58:23;99907.31;;;7.77;100.00
65880;BME280;52661;51.364;6.054;2023-03-26T06:00:58;99897.28;;;7.81;100.00
65880;BME280;52661;51.364;6.054;2023-03-26T06:03:27;99897.66;;;7.79;100.00
65880;BME280;52661;51.364;6.054;2023-03-26T06:05:52;99897.28;;;7.81;100.00
65880;BME280;52661;51.364;6.054;2023-03-26T06:08:18;99887.63;;;7.80;100.00
65880;BME280;52661;51.364;6.054;2023-03-26T06:10:44;99883.38;;;7.75;100.00
65880;BME280;52661;51.364;6.054;2023-03-26T06:13:09;99899.59;;;7.75;100.00
65880;BME280;52661;51.364;6.054;2023-03-26T06:15:36;99881.06;;;7.81;100.00
65880;BME280;52661;51.364;6.054;2023-03-26T06:18:01;99880.69;;;7.75;100.00
65880;BME280;52661;51.364;6.054;2023-03-26T06:20:27;99880.69;;;7.75;100.00
65880;BME280;52661;51.364;6.054;2023-03-26T06:22:52;99881.84;;;7.78;100.00
65880;BME280;52661;51.364;6.054;2023-03-26T06:25:18;99879.91;;;7.78;100.00
65880;BME280;52661;51.364;6.054;2023-03-26T06:27:43;99875.28;;;7.79;100.00
65880;BME280;52661;51.364;6.054;2023-03-26T06:30:10;99882.22;;;7.80;100.00
65880;BME280;52661;51.364;6.054;2023-03-26T06:32:35;99882.22;;;7.87;100.00
65880;BME280;52661;51.364;6.054;2023-03-26T06:35:01;99885.69;;;7.91;100.00
65880;BME280;52661;51.364;6.054;2023-03-26T06:37:26;99882.22;;;7.87;100.00
65880;BME280;52661;51.364;6.054;2023-03-26T06:39:51;99880.31;;;7.80;100.00
65880;BME280;52661;51.364;6.054;2023-03-26T06:42:17;99878.38;;;7.77;100.00
65880;BME280;52661;51.364;6.054;2023-03-26T06:44:42;99870.66;;;7.69;100.00
65880;BME280;52661;51.364;6.054;2023-03-26T06:47:07;99876.09;;;7.65;100.00
65880;BME280;52661;51.364;6.054;2023-03-26T06:49:33;99876.88;;;7.62;100.00
65880;BME280;52661;51.364;6.054;2023-03-26T06:51:58;99869.50;;;7.73;100.00
65880;BME280;52661;51.364;6.054;2023-03-26T06:54:26;99875.69;;;7.74;100.00
65880;BME280;52661;51.364;6.054;2023-03-26T06:56:51;99876.06;;;7.76;100.00
65880;BME280;52661;51.364;6.054;2023-03-26T06:59:17;99870.66;;;7.72;100.00
65880;BME280;52661;51.364;6.054;2023-03-26T07:01:42;99863.72;;;7.64;100.00
65880;BME280;52661;51.364;6.054;2023-03-26T07:04:07;99864.50;;;7.72;100.00
65880;BME280;52661;51.364;6.054;2023-03-26T07:06:33;99861.78;;;7.68;100.00
65880;BME280;52661;51.364;6.054;2023-03-26T07:08:58;99861.78;;;7.72;100.00
65880;BME280;52661;51.364;6.054;2023-03-26T07:11:23;99857.53;;;7.74;100.00
65880;BME280;52661;51.364;6.054;2023-03-26T07:13:51;99859.84;;;7.72;100.00
65880;BME280;52661;51.364;6.054;2023-03-26T07:16:16;99852.53;;;7.69;100.00
65880;BME280;52661;51.364;6.054;2023-03-26T07:18:42;99851.78;;;7.65;100.00
65880;BME280;52661;51.364;6.054;2023-03-26T07:21:08;99847.53;;;7.61;100.00
65880;BME280;52661;51.364;6.054;2023-03-26T07:23:33;99848.69;;;7.60;100.00
65880;BME280;52661;51.364;6.054;2023-03-26T07:26:01;99845.63;;;7.58;100.00
65880;BME280;52661;51.364;6.054;2023-03-26T07:31:16;99845.22;;;7.59;100.00
65880;BME280;52661;51.364;6.054;2023-03-26T07:33:48;99837.88;;;7.63;100.00
65880;BME280;52661;51.364;6.054;2023-03-26T07:36:32;99837.50;;;7.61;100.00
65880;BME280;52661;51.364;6.054;2023-03-26T07:42:02;99826.72;;;7.58;100.00
65880;BME280;52661;51.364;6.054;2023-03-26T07:44:57;99831.31;;;7.64;100.00
65880;BME280;52661;51.364;6.054;2023-03-26T07:47:29;99826.69;;;7.61;100.00
65880;BME280;52661;51.364;6.054;2023-03-26T07:49:57;99818.97;;;7.63;100.00
65880;BME280;52661;51.364;6.054;2023-03-26T07:52:23;99821.31;;;7.61;100.00
65880;BME280;52661;51.364;6.054;2023-03-26T07:54:49;99822.84;;;7.62;100.00
65880;BME280;52661;51.364;6.054;2023-03-26T07:57:40;99813.59;;;7.67;100.00
65880;BME280;52661;51.364;6.054;2023-03-26T08:00:23;99818.59;;;7.65;100.00
65880;BME280;52661;51.364;6.054;2023-03-26T08:06:02;99813.56;;;7.74;100.00
65880;BME280;52661;51.364;6.054;2023-03-26T08:08:39;99813.56;;;7.70;100.00
65880;BME280;52661;51.364;6.054;2023-03-26T08:13:59;99806.22;;;7.67;100.00
65880;BME280;52661;51.364;6.054;2023-03-26T08:16:36;99810.47;;;7.68;100.00
65880;BME280;52661;51.364;6.054;2023-03-26T08:21:54;99809.63;;;7.92;100.00
65880;BME280;52661;51.364;6.054;2023-03-26T08:27:07;99801.97;;;7.80;100.00
65880;BME280;52661;51.364;6.054;2023-03-26T08:32:17;99797.34;;;7.74;100.00
65880;BME280;52661;51.364;6.054;2023-03-26T08:34:43;99796.94;;;7.79;100.00
65880;BME280;52661;51.364;6.054;2023-03-26T08:37:08;99802.72;;;7.88;100.00
65880;BME280;52661;51.364;6.054;2023-03-26T08:39:34;99794.94;;;7.93;100.00
65880;BME280;52661;51.364;6.054;2023-03-26T08:42:26;99799.97;;;7.95;100.00
65880;BME280;52661;51.364;6.054;2023-03-26T08:45:23;99791.47;;;7.97;100.00
65880;BME280;52661;51.364;6.054;2023-03-26T08:50:58;99791.44;;;8.00;100.00
65880;BME280;52661;51.364;6.054;2023-03-26T08:53:54;99787.94;;;8.03;100.00
65880;BME280;52661;51.364;6.054;2023-03-26T08:59:35;99789.50;;;8.04;100.00
65880;BME280;52661;51.364;6.054;2023-03-26T09:13:03;99777.94;;;7.97;100.00
65880;BME280;52661;51.364;6.054;2023-03-26T09:21:39;99781.03;;;7.99;100.00
65880;BME280;52661;51.364;6.054;2023-03-26T09:27:36;99772.94;;;7.99;100.00
65880;BME280;52661;51.364;6.054;2023-03-26T09:38:49;99772.16;;;7.98;100.00
65880;BME280;52661;51.364;6.054;2023-03-26T09:41:58;99762.88;;;8.03;100.00
65880;BME280;52661;51.364;6.054;2023-03-26T10:03:56;99763.00;;;7.74;100.00
65880;BME280;52661;51.364;6.054;2023-03-26T10:06:54;99764.94;;;7.77;100.00
65880;BME280;52661;51.364;6.054;2023-03-26T10:09:42;99763.69;;;7.89;100.00
65880;BME280;52661;51.364;6.054;2023-03-26T10:12:14;99767.59;;;7.88;100.00
65880;BME280;52661;51.364;6.054;2023-03-26T10:17:35;99751.69;;;7.97;100.00
65880;BME280;52661;51.364;6.054;2023-03-26T10:25:21;99760.59;;;7.94;100.00
65880;BME280;52661;51.364;6.054;2023-03-26T10:33:27;99764.84;;;7.99;100.00
65880;BME280;52661;51.364;6.054;2023-03-26T10:39:18;99767.88;;;8.04;100.00
65880;BME280;52661;51.364;6.054;2023-03-26T10:42:14;99769.44;;;8.05;100.00
65880;BME280;52661;51.364;6.054;2023-03-26T10:52:58;99770.59;;;8.01;100.00
65880;BME280;52661;51.364;6.054;2023-03-26T10:55:37;99763.28;;;7.98;100.00
65880;BME280;52661;51.364;6.054;2023-03-26T10:58:26;99762.84;;;8.10;100.00
65880;BME280;52661;51.364;6.054;2023-03-26T11:01:04;99764.44;;;7.97;100.00
65880;BME280;52661;51.364;6.054;2023-03-26T11:09:14;99769.47;;;7.95;100.00
65880;BME280;52661;51.364;6.054;2023-03-26T11:14:45;99770.19;;;8.06;100.00
65880;BME280;52661;51.364;6.054;2023-03-26T11:20:09;99763.63;;;8.03;100.00
65880;BME280;52661;51.364;6.054;2023-03-26T11:25:56;99763.84;;;8.40;100.00
65880;BME280;52661;51.364;6.054;2023-03-26T11:30:56;99765.44;;;8.27;100.00
65880;BME280;52661;51.364;6.054;2023-03-26T11:33:28;99768.81;;;8.49;100.00
65880;BME280;52661;51.364;6.054;2023-03-26T11:36:04;99769.88;;;8.62;100.00
65880;BME280;52661;51.364;6.054;2023-03-26T11:38:33;99772.16;;;8.67;100.00
65880;BME280;52661;51.364;6.054;2023-03-26T11:41:30;99774.53;;;8.58;100.00
65880;BME280;52661;51.364;6.054;2023-03-26T11:44:00;99769.94;;;8.55;100.00
65880;BME280;52661;51.364;6.054;2023-03-26T11:46:27;99765.66;;;8.58;100.00
65880;BME280;52661;51.364;6.054;2023-03-26T11:49:02;99759.09;;;8.55;100.00
65880;BME280;52661;51.364;6.054;2023-03-26T11:51:37;99765.69;;;8.51;100.00
65880;BME280;52661;51.364;6.054;2023-03-26T11:54:05;99770.34;;;8.47;100.00
65880;BME280;52661;51.364;6.054;2023-03-26T11:56:41;99773.03;;;8.50;100.00
65880;BME280;52661;51.364;6.054;2023-03-26T12:04:18;99772.66;;;9.03;100.00
65880;BME280;52661;51.364;6.054;2023-03-26T12:07:05;99769.22;;;8.96;100.00
65880;BME280;52661;51.364;6.054;2023-03-26T12:09:31;99777.50;;;8.78;100.00
65880;BME280;52661;51.364;6.054;2023-03-26T12:12:02;99777.19;;;8.65;100.00
65880;BME280;52661;51.364;6.054;2023-03-26T12:14:31;99782.13;;;8.77;100.00
65880;BME280;52661;51.364;6.054;2023-03-26T12:17:07;99784.00;;;8.84;100.00
65880;BME280;52661;51.364;6.054;2023-03-26T12:19:42;99781.31;;;8.84;100.00
65880;BME280;52661;51.364;6.054;2023-03-26T12:22:32;99780.44;;;8.94;100.00
65880;BME280;52661;51.364;6.054;2023-03-26T12:25:19;99785.16;;;8.83;100.00
65880;BME280;52661;51.364;6.054;2023-03-26T12:30:37;99781.75;;;9.20;100.00
65880;BME280;52661;51.364;6.054;2023-03-26T12:35:38;99788.28;;;9.26;100.00
65880;BME280;52661;51.364;6.054;2023-03-26T12:40:46;99797.59;;;9.25;100.00
65880;BME280;52661;51.364;6.054;2023-03-26T12:43:45;99785.28;;;9.17;100.00
65880;BME280;52661;51.364;6.054;2023-03-26T12:46:30;99787.66;;;9.11;100.00
65880;BME280;52661;51.364;6.054;2023-03-26T12:48:58;99796.88;;;9.17;100.00
65880;BME280;52661;51.364;6.054;2023-03-26T13:02:42;99793.22;;;9.34;100.00
65880;BME280;52661;51.364;6.054;2023-03-26T13:08:16;99806.06;;;9.27;100.00
65880;BME280;52661;51.364;6.054;2023-03-26T13:13:45;99807.75;;;9.14;100.00
65880;BME280;52661;51.364;6.054;2023-03-26T13:16:51;99808.94;;;9.09;100.00
65880;BME280;52661;51.364;6.054;2023-03-26T13:24:30;99806.66;;;9.45;100.00
65880;BME280;52661;51.364;6.054;2023-03-26T13:41:40;99823.75;;;9.38;100.00
65880;BME280;52661;51.364;6.054;2023-03-26T13:46:59;99822.34;;;9.23;100.00
65880;BME280;52661;51.364;6.054;2023-03-26T13:49:32;99821.91;;;9.28;100.00
65880;BME280;52661;51.364;6.054;2023-03-26T13:55:18;99834.84;;;9.10;100.00
65880;BME280;52661;51.364;6.054;2023-03-26T13:58:00;99836.75;;;9.13;100.00
65880;BME280;52661;51.364;6.054;2023-03-26T14:06:43;99840.91;;;9.25;100.00
65880;BME280;52661;51.364;6.054;2023-03-26T14:09:15;99846.72;;;9.23;100.00
65880;BME280;52661;51.364;6.054;2023-03-26T14:14:16;99857.56;;;9.20;100.00
65880;BME280;52661;51.364;6.054;2023-03-26T14:16:48;99846.88;;;9.02;100.00
65880;BME280;52661;51.364;6.054;2023-03-26T14:22:40;99856.94;;;9.02;100.00
65880;BME280;52661;51.364;6.054;2023-03-26T14:28:30;99860.09;;;8.97;100.00
65880;BME280;52661;51.364;6.054;2023-03-26T14:31:16;99854.72;;;8.89;100.00
65880;BME280;52661;51.364;6.054;2023-03-26T14:37:01;99866.66;;;8.96;100.00
65880;BME280;52661;51.364;6.054;2023-03-26T14:45:37;99877.63;;;8.74;100.00
65880;BME280;52661;51.364;6.054;2023-03-26T14:51:37;99891.94;;;8.75;100.00
65880;BME280;52661;51.364;6.054;2023-03-26T14:54:14;99897.03;;;8.59;100.00
65880;BME280;52661;51.364;6.054;2023-03-26T15:11:33;99925.25;;;8.54;100.00
65880;BME280;52661;51.364;6.054;2023-03-26T15:31:50;99945.81;;;8.20;100.00
65880;BME280;52661;51.364;6.054;2023-03-26T15:40:28;99969.75;;;8.21;100.00
65880;BME280;52661;51.364;6.054;2023-03-26T15:48:11;99981.38;;;7.97;100.00
65880;BME280;52661;51.364;6.054;2023-03-26T15:53:34;99982.19;;;7.83;100.00
65880;BME280;52661;51.364;6.054;2023-03-26T15:58:55;99998.75;;;7.89;100.00
65880;BME280;52661;51.364;6.054;2023-03-26T16:04:35;100013.81;;;7.93;100.00
65880;BME280;52661;51.364;6.054;2023-03-26T16:12:32;100037.75;;;7.91;100.00
65880;BME280;52661;51.364;6.054;2023-03-26T16:29:18;100071.34;;;8.05;100.00
65880;BME280;52661;51.364;6.054;2023-03-26T16:32:02;100058.97;;;8.00;100.00
65880;BME280;52661;51.364;6.054;2023-03-26T16:37:48;100078.28;;;7.99;100.00
65880;BME280;52661;51.364;6.054;2023-03-26T16:46:09;100092.19;;;8.01;100.00
65880;BME280;52661;51.364;6.054;2023-03-26T16:56:55;100128.44;;;7.82;100.00
65880;BME280;52661;51.364;6.054;2023-03-26T17:02:04;100142.72;;;7.75;100.00
65880;BME280;52661;51.364;6.054;2023-03-26T17:04:38;100147.75;;;7.77;100.00
65880;BME280;52661;51.364;6.054;2023-03-26T17:07:37;100159.69;;;7.72;100.00
65880;BME280;52661;51.364;6.054;2023-03-26T17:10:14;100162.38;;;7.72;100.00
65880;BME280;52661;51.364;6.054;2023-03-26T17:13:14;100165.84;;;7.66;100.00
65880;BME280;52661;51.364;6.054;2023-03-26T17:22:19;100186.66;;;7.62;100.00
65880;BME280;52661;51.364;6.054;2023-03-26T17:24:26;100195.13;;;7.57;100.00
65880;BME280;52661;51.364;6.054;2023-03-26T17:30:02;100213.22;;;7.49;100.00
65880;BME280;52661;51.364;6.054;2023-03-26T17:35:37;100227.88;;;7.45;100.00
65880;BME280;52661;51.364;6.054;2023-03-26T17:40:52;100249.81;;;7.36;100.00
65880;BME280;52661;51.364;6.054;2023-03-26T17:46:32;100259.09;;;7.42;100.00
65880;BME280;52661;51.364;6.054;2023-03-26T17:51:49;100271.78;;;7.34;100.00
65880;BME280;52661;51.364;6.054;2023-03-26T17:54:35;100275.25;;;7.35;100.00
65880;BME280;52661;51.364;6.054;2023-03-26T17:59:57;100286.75;;;7.25;100.00
65880;BME280;52661;51.364;6.054;2023-03-26T18:02:33;100296.81;;;7.28;100.00
65880;BME280;52661;51.364;6.054;2023-03-26T18:05:03;100302.59;;;7.26;100.00
65880;BME280;52661;51.364;6.054;2023-03-26T18:16:15;100333.66;;;7.06;100.00
65880;BME280;52661;51.364;6.054;2023-03-26T18:18:57;100344.06;;;7.04;100.00
65880;BME280;52661;51.364;6.054;2023-03-26T18:23:56;100354.41;;;6.99;100.00
65880;BME280;52661;51.364;6.054;2023-03-26T18:26:31;100356.34;;;6.98;100.00
65880;BME280;52661;51.364;6.054;2023-03-26T18:31:45;100363.22;;;6.92;100.00
65880;BME280;52661;51.364;6.054;2023-03-26T18:34:14;100364.78;;;6.93;100.00
65880;BME280;52661;51.364;6.054;2023-03-26T18:39:30;100374.75;;;6.89;100.00
65880;BME280;52661;51.364;6.054;2023-03-26T18:41:56;100378.56;;;6.84;100.00
65880;BME280;52661;51.364;6.054;2023-03-26T18:44:22;100381.22;;;6.81;100.00
65880;BME280;52661;51.364;6.054;2023-03-26T18:46:47;100384.72;;;6.85;100.00
65880;BME280;52661;51.364;6.054;2023-03-26T18:49:16;100393.59;;;6.85;100.00
65880;BME280;52661;51.364;6.054;2023-03-26T18:51:42;100398.16;;;6.78;100.00
65880;BME280;52661;51.364;6.054;2023-03-26T18:54:20;100400.06;;;6.77;100.00
65880;BME280;52661;51.364;6.054;2023-03-26T18:56:47;100411.25;;;6.76;100.00
65880;BME280;52661;51.364;6.054;2023-03-26T18:59:24;100417.06;;;6.81;100.00
65880;BME280;52661;51.364;6.054;2023-03-26T19:01:56;100432.88;;;6.79;100.00
65880;BME280;52661;51.364;6.054;2023-03-26T19:04:24;100436.63;;;6.71;100.00